メインページ
METAR-TAF:

METAR-TAF

空港 :

アテネ国際空港

アテネ, ギリシャ

緯度: 37-56N, 経度: 023-56E, 海抜: 94m

現時点の気象観測

当レポートは32分前の03:20(UTC)に作成
変向風 3kt
気温 9°C
湿度 46%
気圧 1017 hPa
視程10km以上
高度3000ftの雲はほとんどない

METAR: LGAV 250320Z VRB03KT 9999 FEW030 09/M02 Q1017 NOSIG

時間: 05:52 (03:52 UTC)

予報

当レポートは3時間27分前の00:25(UTC)に作成
予報は25日の 00時(UTC)から 25日の 24時(UTC)まで有効
北/北東の風 14kt
視程10km以上
高度3000ftの雲はほとんどない

TAF: LGAV 250025Z 2500/2524 02014KT 9999 FEW030

4,000以上の空港の気象観測と天気予報(METAR報とTAF報)

利用可能な観測所は地図上に黄色い丸と赤い丸で示す。

丸の上にカーソルを重ねると観測所名を参照できる。

次にクリックすると気象観測と天気予報を参照できる。

マップの切り替え:黒色「×」印の緑ボタンをクリックして拡大、「-」印の緑ボタンをクリックして縮小、緑色の三角印をクリックして隣りの地図に切り替え


METAR-TAF: